Time;durP1;ratioP1;P1;durP2;ratioP2;P2;SDS_P1;SDS_P2;PMS_P1;PMS_P2;Temp;Humidity;BMP_temperature;BMP_pressure;BME280_temperature;BME280_humidity;BME280_pressure;Samples;Min_cycle;Max_cycle;Signal;HPM_P1;HPM_P2
2020/12/28 00:00:26;;;;;;;;;9.00;9.00;;;;;10.88;41.94;96937.41;6158319;28;97075;-63
2020/12/28 00:03:27;;;;;;;;;8.00;8.00;;;;;10.94;41.91;96936.31;6158736;28;97913;-63
2020/12/28 00:06:28;;;;;;;;;8.40;8.00;;;;;10.86;42.11;96926.88;6159042;28;96829;-63
2020/12/28 00:09:30;;;;;;;;;10.00;9.00;;;;;10.91;42.14;96907.19;6158573;28;96735;-63
2020/12/28 00:12:46;;;;;;;;;8.00;8.00;;;;;10.90;41.95;96902.91;6158104;28;98227;-63
2020/12/28 00:15:48;;;;;;;;;9.00;8.00;;;;;10.83;41.91;96893.19;6165383;28;97124;-62
2020/12/28 00:18:50;;;;;;;;;8.60;7.00;;;;;10.50;42.60;96906.44;6173868;28;97444;-64
2020/12/28 00:21:52;;;;;;;;;6.20;6.20;;;;;10.69;42.19;96896.72;6159025;28;97692;-63
2020/12/28 00:24:53;;;;;;;;;7.00;6.00;;;;;10.70;42.40;96892.94;6142355;28;97006;-63
2020/12/28 00:27:55;;;;;;;;;6.00;5.80;;;;;10.86;42.30;96908.00;6159087;28;96868;-63
2020/12/28 00:30:57;;;;;;;;;5.40;5.40;;;;;10.94;42.03;96903.97;6157850;28;98043;-64
2020/12/28 00:33:59;;;;;;;;;6.00;6.00;;;;;10.95;41.83;96900.97;6159330;28;97486;-64
2020/12/28 00:37:01;;;;;;;;;7.20;6.20;;;;;10.69;42.19;96837.44;6158853;28;97572;-64
2020/12/28 00:40:05;;;;;;;;;6.00;5.00;;;;;10.97;42.43;96884.53;6159102;28;97586;-64
2020/12/28 00:43:06;;;;;;;;;3.20;3.20;;;;;10.75;43.84;96885.66;6158361;28;97675;-64
2020/12/28 00:46:08;;;;;;;;;4.00;3.00;;;;;10.63;43.24;96839.31;6158795;28;97175;-64
2020/12/28 00:49:10;;;;;;;;;5.00;5.00;;;;;10.86;43.53;96875.66;6159371;28;96669;-64
2020/12/28 00:52:12;;;;;;;;;4.00;4.00;;;;;11.02;43.62;96906.91;6141551;28;97292;-64
2020/12/28 00:55:14;;;;;;;;;3.00;2.00;;;;;11.06;43.52;96899.09;6159319;28;97648;-64
2020/12/28 00:58:16;;;;;;;;;4.60;3.60;;;;;11.21;42.97;96889.06;6141956;28;97456;-64
2020/12/28 01:01:26;;;;;;;;;1.20;1.00;;;;;10.81;43.50;96829.84;6141592;28;97186;-64
2020/12/28 01:04:28;;;;;;;;;1.50;1.50;;;;;11.05;43.68;96857.00;6141731;28;96942;-63
2020/12/28 01:07:32;;;;;;;;;2.00;2.00;;;;;11.16;43.22;96848.63;6141731;28;98801;-63
2020/12/28 01:10:44;;;;;;;;;2.00;1.00;;;;;10.84;44.17;96826.63;6125970;28;97761;-63
2020/12/28 01:13:48;;;;;;;;;2.20;2.20;;;;;10.27;46.07;96837.72;6141775;28;97354;-63
2020/12/28 01:16:50;;;;;;;;;3.00;2.00;;;;;10.50;45.36;96829.13;6141901;28;97503;-63
2020/12/28 01:19:52;;;;;;;;;2.00;1.00;;;;;10.58;45.15;96817.78;6140784;28;96702;-63
2020/12/28 01:22:55;;;;;;;;;2.00;2.00;;;;;10.75;45.06;96820.97;6140723;28;97255;-63
2020/12/28 01:25:57;;;;;;;;;2.00;2.00;;;;;10.79;44.78;96819.38;6140970;28;96985;-63
2020/12/28 01:29:01;;;;;;;;;1.00;1.00;;;;;10.75;44.59;96825.56;6141589;28;96997;-63
2020/12/28 01:32:07;;;;;;;;;2.00;1.50;;;;;10.53;45.40;96833.13;6158959;28;97515;-63
2020/12/28 01:35:31;;;;;;;;;1.20;1.00;;;;;10.90;44.25;96836.28;6129536;28;97019;-63
2020/12/28 01:38:33;;;;;;;;;2.00;2.00;;;;;10.88;44.61;96843.06;6140405;28;98394;-63
2020/12/28 01:41:35;;;;;;;;;1.25;1.00;;;;;10.67;45.12;96834.19;6140827;28;97980;-62
2020/12/28 01:44:37;;;;;;;;;2.50;2.50;;;;;10.38;45.79;96848.22;6125219;28;98464;-62
2020/12/28 01:47:49;;;;;;;;;1.00;1.00;;;;;10.36;45.83;96828.81;6143997;28;97873;-63
2020/12/28 01:50:51;;;;;;;;;2.00;2.00;;;;;10.09;45.91;96785.19;6161430;28;97707;-63
2020/12/28 01:53:53;;;;;;;;;1.00;1.00;;;;;10.06;46.04;96795.69;6129359;28;98947;-63
2020/12/28 01:57:15;;;;;;;;;1.00;1.00;;;;;10.36;46.07;96807.28;6161191;28;97129;-63
2020/12/28 02:00:25;;;;;;;;;1.50;1.50;;;;;10.53;45.39;96806.19;6145208;28;96496;-64
2020/12/28 02:03:34;;;;;;;;;2.00;1.00;;;;;10.35;45.36;96765.28;6142030;28;97015;-63
2020/12/28 02:07:09;;;;;;;;;3.00;2.50;;;;;10.22;46.12;96800.03;6127070;28;98119;-63
2020/12/28 02:10:12;;;;;;;;;2.00;2.00;;;;;10.40;45.75;96791.41;6144333;28;97146;-63
2020/12/28 02:13:14;;;;;;;;;2.80;2.00;;;;;10.66;44.84;96806.44;6143910;28;96862;-63
2020/12/28 02:16:36;;;;;;;;;2.00;2.00;;;;;10.44;45.16;96792.47;6135409;28;97504;-63
2020/12/28 02:19:43;;;;;;;;;4.00;3.60;;;;;10.53;45.29;96793.53;6135353;28;97384;-64
2020/12/28 02:22:44;;;;;;;;;4.00;3.00;;;;;10.07;46.82;96784.66;6140285;28;97560;-63
2020/12/28 02:25:46;;;;;;;;;3.00;3.00;;;;;10.03;46.70;96791.66;6142737;28;97009;-63
2020/12/28 02:28:47;;;;;;;;;2.00;2.00;;;;;9.87;46.71;96763.13;6159103;28;97896;-63
2020/12/28 02:31:50;;;;;;;;;3.60;3.00;;;;;9.93;46.67;96762.84;6143234;28;96941;-63
2020/12/28 02:35:14;;;;;;;;;2.00;2.00;;;;;9.37;47.47;96718.97;6125593;28;97101;-63
2020/12/28 02:38:23;;;;;;;;;2.00;1.50;;;;;9.79;46.66;96731.34;6159560;28;97665;-63
2020/12/28 02:41:26;;;;;;;;;3.00;3.00;;;;;9.57;47.24;96719.00;6142002;28;97519;-63
2020/12/28 02:45:06;;;;;;;;;2.00;2.00;;;;;9.93;46.94;96741.31;5993123;28;1046794;-63
2020/12/28 02:48:26;;;;;;;;;1.00;1.00;;;;;9.85;46.79;96724.91;6032616;28;97100;-64
2020/12/28 02:51:46;;;;;;;;;1.00;1.00;;;;;10.10;46.38;96740.25;6160023;28;97019;-63
2020/12/28 02:55:07;;;;;;;;;2.00;2.00;;;;;10.19;46.33;96739.47;6160872;28;97561;-64
2020/12/28 02:58:27;;;;;;;;;2.00;2.00;;;;;10.17;45.97;96709.28;6161699;28;97162;-64
2020/12/28 03:01:50;;;;;;;;;1.00;1.00;;;;;10.28;46.05;96743.22;6160374;28;97801;-64
2020/12/28 03:05:09;;;;;;;;;2.00;2.00;;;;;10.41;45.54;96733.75;6161113;28;97073;-62
2020/12/28 03:08:29;;;;;;;;;2.25;2.25;;;;;10.40;45.68;96722.19;6160673;28;97095;-63
2020/12/28 03:11:57;;;;;;;;;2.00;2.00;;;;;10.38;45.67;96712.75;6143555;28;96998;-63
2020/12/28 03:15:18;;;;;;;;;2.20;2.20;;;;;10.21;45.89;96694.22;6160963;28;97146;-63
2020/12/28 03:18:38;;;;;;;;;2.60;2.60;;;;;10.52;45.45;96711.09;6136609;28;97625;-63
2020/12/28 03:21:58;;;;;;;;;1.00;1.00;;;;;10.30;45.53;96646.81;6136507;28;96684;-63
2020/12/28 03:25:18;;;;;;;;;2.00;2.00;;;;;10.42;45.03;96703.03;6137384;28;97566;-63
2020/12/28 03:28:38;;;;;;;;;2.00;2.00;;;;;10.50;45.46;96678.25;6151410;28;96917;-63
2020/12/28 03:31:59;;;;;;;;;2.00;2.00;;;;;10.41;45.63;96664.53;6161218;28;97433;-63
2020/12/28 03:35:19;;;;;;;;;2.00;2.00;;;;;10.31;45.41;96648.41;6161147;28;97061;-63
2020/12/28 03:38:38;;;;;;;;;2.00;2.00;;;;;10.62;45.25;96686.81;6161179;28;97239;-63
2020/12/28 03:41:58;;;;;;;;;2.00;2.00;;;;;10.53;44.60;96615.75;6160562;28;97143;-63
2020/12/28 03:45:19;;;;;;;;;1.80;1.00;;;;;10.76;44.20;96630.44;6160123;28;96702;-63
2020/12/28 03:48:39;;;;;;;;;1.00;1.00;;;;;11.15;43.95;96657.44;6160950;28;96717;-63
2020/12/28 03:51:59;;;;;;;;;1.00;1.00;;;;;10.89;43.71;96594.00;6160888;28;97554;-63
2020/12/28 03:55:19;;;;;;;;;2.00;2.00;;;;;11.29;43.33;96642.25;6160109;28;97044;-63
2020/12/28 03:58:40;;;;;;;;;2.00;2.00;;;;;11.41;42.95;96645.41;6159850;28;97319;-63
2020/12/28 04:01:59;;;;;;;;;1.60;1.00;;;;;11.38;43.14;96642.47;6160837;28;97215;-63
2020/12/28 04:05:19;;;;;;;;;2.00;2.00;;;;;11.38;43.00;96639.78;6143252;28;98284;-63
2020/12/28 04:08:39;;;;;;;;;1.00;1.00;;;;;11.32;43.02;96630.09;6160231;28;97597;-63
2020/12/28 04:12:13;;;;;;;;;1.00;1.00;;;;;11.13;43.38;96619.19;6127359;28;97803;-63
2020/12/28 04:15:15;;;;;;;;;2.00;1.75;;;;;11.06;43.48;96607.91;6160648;28;97683;-64
2020/12/28 04:18:17;;;;;;;;;2.00;2.00;;;;;11.04;43.64;96610.88;6160640;28;98117;-63
2020/12/28 04:21:19;;;;;;;;;2.40;1.40;;;;;10.94;43.79;96608.25;6160000;28;96549;-63
2020/12/28 04:24:20;;;;;;;;;1.33;1.33;;;;;10.94;43.84;96600.16;6160784;28;98474;-63
2020/12/28 04:27:22;;;;;;;;;0.00;0.00;;;;;10.92;43.80;96596.13;6159623;28;97078;-63
2020/12/28 04:30:23;;;;;;;;;2.00;2.00;;;;;10.90;43.95;96582.13;6160056;28;97675;-64
2020/12/28 04:33:25;;;;;;;;;2.00;2.00;;;;;10.81;44.24;96574.63;6160324;28;98049;-64
2020/12/28 04:36:28;;;;;;;;;1.00;1.00;;;;;10.69;44.47;96582.25;6159553;28;97564;-63
2020/12/28 04:39:30;;;;;;;;;2.00;1.00;;;;;10.69;44.36;96573.38;6159734;28;97592;-63
2020/12/28 04:42:31;;;;;;;;;1.00;1.00;;;;;10.76;44.28;96568.47;6158933;28;97816;-64
2020/12/28 04:45:33;;;;;;;;;3.00;2.00;;;;;10.72;43.85;96533.19;6159928;28;97202;-64
2020/12/28 04:48:34;;;;;;;;;3.00;2.00;;;;;11.05;43.58;96565.84;6159364;28;97032;-64
2020/12/28 04:51:36;;;;;;;;;2.00;2.00;;;;;11.11;43.28;96560.13;6160710;28;98759;-63
2020/12/28 04:54:39;;;;;;;;;1.25;1.25;;;;;11.18;43.02;96559.81;6159668;28;96774;-63
2020/12/28 04:57:40;;;;;;;;;3.00;3.00;;;;;11.24;42.90;96555.97;6159322;28;97171;-63
2020/12/28 05:00:43;;;;;;;;;1.00;1.00;;;;;11.00;43.79;96539.72;6157736;28;97339;-64
2020/12/28 05:03:45;;;;;;;;;1.60;1.60;;;;;11.30;42.95;96555.66;6152241;28;97803;-64
2020/12/28 05:06:57;;;;;;;;;1.60;1.60;;;;;11.15;42.83;96514.53;6159080;28;97707;-63
2020/12/28 05:10:00;;;;;;;;;2.00;2.00;;;;;11.47;42.65;96540.97;6160099;28;97923;-63
2020/12/28 05:13:12;;;;;;;;;2.00;2.00;;;;;11.44;42.57;96530.72;6159273;28;97539;-64
2020/12/28 05:16:14;;;;;;;;;2.00;2.00;;;;;11.49;42.66;96534.19;6142285;28;99513;-63
2020/12/28 05:19:17;;;;;;;;;1.00;1.00;;;;;11.52;42.58;96544.41;6158828;28;97186;-63
2020/12/28 05:22:21;;;;;;;;;2.00;2.00;;;;;11.20;42.41;96468.63;6141436;28;96504;-64
2020/12/28 05:25:22;;;;;;;;;2.33;2.33;;;;;11.59;42.39;96515.19;6141010;28;97127;-63
2020/12/28 05:28:28;;;;;;;;;1.80;1.80;;;;;11.13;41.99;96469.00;6159871;28;97570;-63
2020/12/28 05:31:32;;;;;;;;;1.00;0.20;;;;;11.49;42.19;96509.09;6158645;28;96741;-66
2020/12/28 05:34:33;;;;;;;;;1.00;1.00;;;;;11.44;42.20;96515.34;6159073;28;97408;-64
2020/12/28 05:37:37;;;;;;;;;1.00;1.00;;;;;11.36;42.27;96497.09;6159399;28;96859;-63
2020/12/28 05:40:39;;;;;;;;;0.60;0.20;;;;;11.27;42.68;96502.28;6158218;28;96775;-64
2020/12/28 05:43:40;;;;;;;;;1.75;1.00;;;;;11.19;42.68;96502.88;6158134;28;97729;-63
2020/12/28 05:46:42;;;;;;;;;2.00;2.00;;;;;10.78;43.14;96458.50;6159654;28;97026;-63
2020/12/28 05:49:46;;;;;;;;;2.00;2.00;;;;;11.41;42.40;96480.84;6158816;28;97118;-62
2020/12/28 05:52:52;;;;;;;;;2.00;1.50;;;;;11.66;41.87;96479.78;6159216;28;96704;-63
2020/12/28 05:55:54;;;;;;;;;2.00;2.00;;;;;11.69;41.48;96446.81;6159247;28;97331;-63
2020/12/28 05:58:56;;;;;;;;;4.00;2.33;;;;;11.58;42.27;96464.22;6159518;28;96825;-63
2020/12/28 06:01:59;;;;;;;;;2.80;2.00;;;;;11.72;41.75;96467.84;6158534;28;98169;-63
2020/12/28 06:05:00;;;;;;;;;2.00;2.00;;;;;11.89;41.48;96448.50;6159435;28;97710;-62
2020/12/28 06:08:03;;;;;;;;;1.00;1.00;;;;;12.08;40.99;96443.94;6157289;28;97516;-64
2020/12/28 06:11:06;;;;;;;;;1.40;1.00;;;;;12.02;40.71;96402.69;6159184;28;96769;-63
2020/12/28 06:14:18;;;;;;;;;1.00;1.00;;;;;12.01;40.95;96390.31;6162356;28;98186;-63
2020/12/28 06:17:19;;;;;;;;;1.00;1.00;;;;;12.27;40.58;96425.03;6154040;28;96985;-63
2020/12/28 06:20:30;;;;;;;;;2.00;2.00;;;;;12.25;40.42;96414.53;6158727;28;96752;-64
2020/12/28 06:23:32;;;;;;;;;1.00;1.00;;;;;12.38;40.49;96437.28;6143321;28;98853;-62
2020/12/28 06:26:33;;;;;;;;;2.00;2.00;;;;;12.25;40.28;96429.94;6159172;28;96634;-62
2020/12/28 06:29:36;;;;;;;;;2.00;2.00;;;;;12.43;40.30;96491.25;6151926;28;96656;-62
2020/12/28 06:32:39;;;;;;;;;1.00;1.00;;;;;12.41;40.34;96496.94;6162482;28;97466;-62
2020/12/28 06:35:41;;;;;;;;;1.75;1.25;;;;;12.41;40.15;96510.47;6161998;28;96714;-63
2020/12/28 06:38:59;;;;;;;;;2.00;2.00;;;;;12.30;40.58;96516.31;6161669;28;96625;-63
2020/12/28 06:42:11;;;;;;;;;2.20;2.20;;;;;12.23;40.73;96534.75;6161042;28;98137;-63
2020/12/28 06:45:15;;;;;;;;;3.00;3.00;;;;;12.25;41.05;96497.47;6161680;28;97131;-63
2020/12/28 06:48:24;;;;;;;;;2.00;2.00;;;;;11.99;41.22;96491.56;6155781;28;96764;-64
2020/12/28 06:51:28;;;;;;;;;2.00;2.00;;;;;12.20;41.01;96498.34;6161652;28;96457;-63
2020/12/28 06:54:30;;;;;;;;;2.00;2.00;;;;;12.08;41.30;96495.22;6160313;28;97435;-63
2020/12/28 06:57:31;;;;;;;;;1.40;1.40;;;;;12.28;40.92;96497.66;6160013;28;97100;-63
2020/12/28 07:00:33;;;;;;;;;2.20;2.20;;;;;12.44;40.60;96484.78;6154247;28;97092;-63
2020/12/28 07:03:34;;;;;;;;;3.00;2.00;;;;;12.43;40.30;96485.84;6160316;28;97338;-63
2020/12/28 07:06:35;;;;;;;;;2.00;2.00;;;;;12.42;40.23;96470.72;6161313;28;97210;-63
2020/12/28 07:09:37;;;;;;;;;2.00;2.00;;;;;12.83;39.78;96485.28;6161690;28;97205;-63
2020/12/28 07:12:38;;;;;;;;;3.00;3.00;;;;;12.94;39.67;96478.59;6162725;28;97694;-63
2020/12/28 07:15:40;;;;;;;;;3.60;3.00;;;;;12.96;39.52;96489.09;6145162;28;97030;-62
2020/12/28 07:18:41;;;;;;;;;4.00;3.00;;;;;13.03;39.46;96493.06;6162155;28;97548;-62
2020/12/28 07:21:43;;;;;;;;;5.00;4.00;;;;;13.16;39.53;96475.28;6161558;28;97601;-63
2020/12/28 07:24:45;;;;;;;;;2.00;2.00;;;;;13.81;38.15;96462.44;6160342;28;97059;-62
2020/12/28 07:27:46;;;;;;;;;3.00;2.00;;;;;14.92;36.24;96423.16;6156883;28;97239;-63
2020/12/28 07:30:55;;;;;;;;;2.60;2.60;;;;;16.68;33.62;96454.66;6159551;28;97195;-62
2020/12/28 07:33:56;;;;;;;;;4.00;4.00;;;;;18.15;31.42;96458.66;6160473;28;97518;-63
2020/12/28 07:37:01;;;;;;;;;2.00;2.00;;;;;18.93;30.01;96467.94;6161069;28;97001;-62
2020/12/28 07:40:04;;;;;;;;;4.00;3.40;;;;;19.36;29.18;96477.66;6145042;28;97533;-63
2020/12/28 07:43:09;;;;;;;;;4.00;3.00;;;;;20.02;28.36;96483.09;6156799;28;97169;-63
2020/12/28 07:46:16;;;;;;;;;5.00;4.00;;;;;20.88;27.41;96458.06;6159577;28;97080;-62
2020/12/28 07:49:26;;;;;;;;;3.00;3.00;;;;;21.63;25.20;96451.94;6159824;28;97031;-63
2020/12/28 07:52:30;;;;;;;;;5.00;4.40;;;;;22.72;24.62;96420.91;6156458;28;96625;-63
2020/12/28 07:55:41;;;;;;;;;3.00;3.00;;;;;22.79;23.94;96404.56;6160548;28;96768;-63
2020/12/28 07:59:08;;;;;;;;;4.00;4.00;;;;;22.85;24.23;96395.69;6159912;28;96925;-63
2020/12/28 08:02:22;;;;;;;;;4.60;4.00;;;;;23.26;23.63;96377.63;6144319;28;98023;-63
2020/12/28 08:05:24;;;;;;;;;4.00;4.00;;;;;22.61;24.32;96378.66;6159273;28;97092;-63
2020/12/28 08:08:26;;;;;;;;;3.50;3.50;;;;;21.10;25.19;96366.34;6160881;28;96647;-63
2020/12/28 08:11:30;;;;;;;;;5.00;4.00;;;;;20.46;26.84;96388.38;6158970;28;97070;-63
2020/12/28 08:14:31;;;;;;;;;4.60;4.60;;;;;19.66;27.52;96377.22;6160076;28;97538;-63
2020/12/28 08:17:33;;;;;;;;;3.00;3.00;;;;;19.16;28.47;96364.59;6160848;28;97653;-63
2020/12/28 08:20:35;;;;;;;;;4.00;4.00;;;;;18.90;29.04;96383.19;6160202;28;97592;-63
2020/12/28 08:23:37;;;;;;;;;4.00;4.00;;;;;18.50;29.51;96388.31;6160152;28;97184;-62
2020/12/28 08:26:42;;;;;;;;;5.00;5.00;;;;;18.24;30.23;96376.78;6159771;28;96690;-63
2020/12/28 08:29:45;;;;;;;;;4.80;4.00;;;;;17.64;30.60;96345.28;6159543;28;98191;-63
2020/12/28 08:32:48;;;;;;;;;4.00;4.00;;;;;17.39;31.11;96378.84;6157867;28;98157;-64
2020/12/28 08:35:51;;;;;;;;;6.00;5.00;;;;;16.70;32.43;96352.59;6158458;28;97252;-63
2020/12/28 08:38:53;;;;;;;;;4.00;4.00;;;;;16.22;33.33;96352.75;6160032;28;97686;-63
2020/12/28 08:41:56;;;;;;;;;4.00;4.00;;;;;15.91;33.99;96341.19;6144920;28;97499;-63
2020/12/28 08:44:58;;;;;;;;;3.60;3.60;;;;;15.34;35.06;96335.75;6146970;28;97291;-63
2020/12/28 08:47:59;;;;;;;;;5.00;5.00;;;;;15.32;35.31;96324.41;6159381;28;97498;-63
2020/12/28 08:51:01;;;;;;;;;4.00;4.00;;;;;15.13;35.95;96332.78;6153541;28;97664;-63
2020/12/28 08:54:02;;;;;;;;;4.00;4.00;;;;;14.69;37.07;96339.09;6160053;28;97709;-63
2020/12/28 08:57:04;;;;;;;;;4.00;4.00;;;;;14.54;37.62;96341.38;6159563;28;96942;-63
2020/12/28 09:00:06;;;;;;;;;6.00;6.00;;;;;14.64;37.77;96341.94;6158440;28;97208;-63
2020/12/28 09:03:09;;;;;;;;;5.00;4.00;;;;;14.36;37.29;96263.75;6157665;28;97591;-63
2020/12/28 09:06:12;;;;;;;;;5.00;5.00;;;;;14.80;37.50;96333.41;6158873;28;97006;-63
2020/12/28 09:09:14;;;;;;;;;5.00;5.00;;;;;14.89;37.29;96316.09;6158153;28;97131;-63
2020/12/28 09:12:16;;;;;;;;;3.00;3.00;;;;;14.60;38.34;96319.28;6159333;28;97086;-63
2020/12/28 09:15:18;;;;;;;;;5.25;5.25;;;;;14.74;38.06;96311.84;6158962;28;97793;-63
2020/12/28 09:18:19;;;;;;;;;7.00;6.00;;;;;14.92;37.49;96261.19;6160256;28;97113;-64
2020/12/28 09:21:21;;;;;;;;;5.75;4.75;;;;;16.06;36.15;96297.25;6155972;28;97146;-62
2020/12/28 09:24:23;;;;;;;;;4.25;4.25;;;;;17.43;34.03;96303.53;6159928;28;97057;-64
2020/12/28 09:27:25;;;;;;;;;6.00;6.00;;;;;19.06;31.29;96298.72;6159697;28;97079;-63
2020/12/28 09:30:26;;;;;;;;;4.00;4.00;;;;;20.75;29.41;96295.78;6159708;28;97867;-63
2020/12/28 09:33:28;;;;;;;;;6.00;6.00;;;;;22.00;26.67;96300.47;6159419;28;96992;-63
2020/12/28 09:36:30;;;;;;;;;5.00;5.00;;;;;23.48;25.31;96298.31;6159810;28;96889;-63
2020/12/28 09:39:32;;;;;;;;;6.00;5.00;;;;;24.70;23.18;96294.19;6157786;28;96975;-63
2020/12/28 09:42:33;;;;;;;;;3.00;3.00;;;;;25.86;22.31;96267.72;6159836;28;97505;-63
2020/12/28 09:45:37;;;;;;;;;5.00;5.00;;;;;26.79;21.33;96266.22;6159295;28;96738;-63
2020/12/28 09:48:39;;;;;;;;;5.00;5.00;;;;;26.82;20.37;96226.78;6159574;28;97650;-62
2020/12/28 09:51:44;;;;;;;;;5.00;3.40;;;;;27.66;20.35;96269.56;6156695;28;97313;-62
2020/12/28 09:54:45;;;;;;;;;6.00;6.00;;;;;28.00;19.30;96256.09;6158576;28;97484;-62
2020/12/28 09:57:48;;;;;;;;;4.00;3.00;;;;;27.93;19.13;96254.13;6159066;28;96576;-62
2020/12/28 10:00:49;;;;;;;;;4.20;4.00;;;;;26.70;19.55;96240.94;6159041;28;96693;-63
2020/12/28 10:03:50;;;;;;;;;5.00;5.00;;;;;25.71;21.10;96235.69;6150139;28;96734;-63
2020/12/28 10:06:52;;;;;;;;;5.00;4.00;;;;;24.48;22.24;96227.03;6161729;28;97380;-63
2020/12/28 10:09:53;;;;;;;;;4.00;4.00;;;;;23.25;23.36;96244.13;6145745;28;98132;-63
2020/12/28 10:12:55;;;;;;;;;4.00;4.00;;;;;22.48;24.18;96257.97;6163790;28;97696;-62
2020/12/28 10:15:56;;;;;;;;;4.00;4.00;;;;;21.69;25.60;96245.69;6163449;28;97650;-62
2020/12/28 10:18:59;;;;;;;;;6.00;6.00;;;;;21.04;26.06;96263.66;6163280;28;97798;-62
2020/12/28 10:22:01;;;;;;;;;4.50;3.50;;;;;20.08;27.24;96257.47;6156893;28;98342;-62
2020/12/28 10:25:02;;;;;;;;;4.00;4.00;;;;;19.26;28.01;96245.94;6162618;28;97031;-62
2020/12/28 10:28:04;;;;;;;;;5.00;5.00;;;;;18.48;29.24;96259.63;6146242;28;97473;-62
2020/12/28 10:31:10;;;;;;;;;3.00;3.00;;;;;17.24;30.60;96184.94;6175518;28;96650;-62
2020/12/28 10:34:12;;;;;;;;;3.50;3.50;;;;;17.19;31.24;96219.72;6148624;28;98332;-62
2020/12/28 10:37:13;;;;;;;;;4.00;4.00;;;;;16.84;32.30;96255.25;6162947;28;97167;-63
2020/12/28 10:40:15;;;;;;;;;6.00;5.00;;;;;16.55;32.59;96238.03;6162755;28;96621;-62
2020/12/28 10:43:28;;;;;;;;;6.00;5.00;;;;;16.51;32.70;96240.63;6143203;28;99673;-62
2020/12/28 10:46:29;;;;;;;;;6.00;5.60;;;;;16.17;33.46;96255.06;6167073;28;97472;-62
2020/12/28 10:49:31;;;;;;;;;4.75;4.00;;;;;15.86;33.61;96244.34;6148242;28;97202;-62
2020/12/28 10:52:33;;;;;;;;;5.00;5.00;;;;;15.84;34.05;96262.88;6154945;28;97158;-62
2020/12/28 10:55:36;;;;;;;;;5.00;5.00;;;;;15.00;34.80;96187.19;6161118;28;97173;-62
2020/12/28 10:58:39;;;;;;;;;4.00;4.00;;;;;14.37;35.71;96135.31;6141558;28;98701;-61
2020/12/28 11:01:41;;;;;;;;;5.00;4.00;;;;;13.74;35.59;96026.16;6162747;28;98113;-62
2020/12/28 11:04:43;;;;;;;;;6.20;6.20;;;;;15.11;35.57;96244.66;6154753;28;97569;-60
2020/12/28 11:07:45;;;;;;;;;6.00;5.40;;;;;15.16;35.75;96253.47;6146358;28;97340;-61
2020/12/28 11:10:46;;;;;;;;;6.00;5.80;;;;;15.20;35.65;96250.13;6161894;28;97952;-61
2020/12/28 11:13:48;;;;;;;;;5.00;5.00;;;;;14.66;35.78;96189.81;6162569;28;98609;-61
2020/12/28 11:16:51;;;;;;;;;7.60;6.60;;;;;14.93;36.12;96279.09;6163904;28;97512;-62
2020/12/28 11:19:52;;;;;;;;;7.00;6.20;;;;;14.58;36.57;96285.44;6128913;28;96865;-63
2020/12/28 11:22:54;;;;;;;;;8.00;7.00;;;;;14.38;37.15;96289.44;6161328;28;97782;-62
2020/12/28 11:25:55;;;;;;;;;7.40;7.40;;;;;14.64;36.56;96287.72;6135125;28;97575;-62
2020/12/28 11:28:57;;;;;;;;;8.40;8.00;;;;;14.37;36.87;96289.78;6127787;28;97345;-61
2020/12/28 11:31:58;;;;;;;;;7.20;7.00;;;;;13.83;37.29;96238.19;6161351;28;96795;-61
2020/12/28 11:35:00;;;;;;;;;6.00;5.00;;;;;14.37;36.78;96295.97;6153098;28;97169;-62
2020/12/28 11:38:02;;;;;;;;;8.60;7.00;;;;;14.11;37.58;96297.69;6161295;28;96596;-61
2020/12/28 11:41:04;;;;;;;;;7.00;7.00;;;;;13.87;37.43;96268.97;6161226;28;98212;-62
2020/12/28 11:44:10;;;;;;;;;9.00;9.00;;;;;13.64;37.33;96244.88;6159111;28;97425;-62
2020/12/28 11:47:11;;;;;;;;;9.00;7.00;;;;;13.80;37.63;96298.38;6161783;28;97404;-61
2020/12/28 11:50:12;;;;;;;;;8.00;7.00;;;;;13.85;37.33;96297.47;6161026;28;97034;-61
2020/12/28 11:53:15;;;;;;;;;7.60;7.00;;;;;13.81;37.42;96293.75;6158099;28;97568;-62
2020/12/28 11:56:18;;;;;;;;;8.00;7.00;;;;;13.21;37.53;96195.75;6159720;28;96902;-62
2020/12/28 11:59:19;;;;;;;;;8.00;8.00;;;;;13.90;36.86;96286.50;6161107;28;97471;-61
2020/12/28 12:02:21;;;;;;;;;8.00;6.60;;;;;14.04;36.72;96302.72;6160715;28;97491;-61
2020/12/28 12:05:23;;;;;;;;;7.00;7.00;;;;;14.20;35.47;96299.34;6161836;28;97493;-61
2020/12/28 12:08:28;;;;;;;;;5.80;5.00;;;;;14.20;34.25;96295.84;6161701;28;97125;-61
2020/12/28 12:11:30;;;;;;;;;3.00;3.00;;;;;14.35;33.74;96303.59;6161534;28;96916;-62
2020/12/28 12:14:32;;;;;;;;;6.00;4.60;;;;;14.27;32.71;96274.50;6129205;28;98238;-63
2020/12/28 12:17:34;;;;;;;;;3.00;3.00;;;;;14.33;32.37;96284.94;6160070;28;96653;-62
2020/12/28 12:20:36;;;;;;;;;3.00;3.00;;;;;14.45;32.09;96310.72;6161448;28;96725;-62
2020/12/28 12:23:37;;;;;;;;;4.00;4.00;;;;;14.46;32.22;96318.53;6160626;28;96540;-62
2020/12/28 12:26:39;;;;;;;;;5.00;5.00;;;;;14.57;32.42;96294.66;6160726;28;99354;-64
2020/12/28 12:29:41;;;;;;;;;3.00;3.00;;;;;14.45;31.98;96308.00;6144750;28;97570;-63
2020/12/28 12:32:43;;;;;;;;;2.00;2.00;;;;;14.25;31.94;96323.63;6136563;28;96711;-63
2020/12/28 12:35:44;;;;;;;;;4.00;3.00;;;;;14.16;31.97;96306.50;6145492;28;96938;-65
2020/12/28 12:38:46;;;;;;;;;3.40;3.00;;;;;14.30;32.03;96295.59;6104721;28;98512;-61
2020/12/28 12:41:48;;;;;;;;;2.00;2.00;;;;;14.20;31.93;96302.06;6164182;28;97292;-63
2020/12/28 12:44:49;;;;;;;;;4.00;4.00;;;;;13.73;32.36;96289.09;6152593;28;97568;-62
2020/12/28 12:47:51;;;;;;;;;4.60;4.00;;;;;13.73;32.79;96300.69;6161213;28;97321;-61
2020/12/28 12:50:53;;;;;;;;;5.75;5.00;;;;;13.88;32.84;96286.81;6160226;28;97683;-63
2020/12/28 12:53:55;;;;;;;;;6.00;6.00;;;;;13.91;33.23;96296.25;6129379;28;96696;-62
2020/12/28 12:56:56;;;;;;;;;7.00;5.00;;;;;13.86;33.07;96315.31;6165833;28;96911;-62
2020/12/28 13:00:07;;;;;;;;;7.20;7.00;;;;;14.05;32.91;96331.41;6171637;28;97470;-61
2020/12/28 13:03:08;;;;;;;;;7.25;7.00;;;;;14.11;32.87;96341.03;6160742;28;97913;-62
2020/12/28 13:06:10;;;;;;;;;5.00;5.00;;;;;14.17;33.16;96353.34;6149091;28;96576;-61
2020/12/28 13:09:11;;;;;;;;;4.20;4.00;;;;;14.07;32.70;96373.34;6157553;28;97218;-62
2020/12/28 13:12:12;;;;;;;;;4.40;4.00;;;;;14.11;32.52;96363.50;6160358;28;97486;-62
2020/12/28 13:15:14;;;;;;;;;3.00;2.00;;;;;13.79;32.04;96339.28;6167094;28;97134;-64
2020/12/28 13:18:15;;;;;;;;;4.00;3.00;;;;;14.24;31.84;96384.34;6161150;28;97696;-61
2020/12/28 13:21:17;;;;;;;;;2.75;2.00;;;;;14.19;31.89;96379.03;6160354;28;97043;-61
2020/12/28 13:24:18;;;;;;;;;1.00;1.00;;;;;13.84;31.97;96341.88;6159703;28;97640;-61
2020/12/28 13:27:20;;;;;;;;;2.00;1.00;;;;;14.13;32.11;96398.41;6162542;28;97588;-61
2020/12/28 13:30:26;;;;;;;;;1.00;1.00;;;;;14.36;31.99;96389.25;6159831;28;96826;-62
2020/12/28 13:33:28;;;;;;;;;3.00;2.00;;;;;14.38;31.89;96392.44;6159387;28;98004;-60
2020/12/28 13:36:36;;;;;;;;;1.00;1.00;;;;;14.40;31.81;96401.09;6140521;28;97058;-61
2020/12/28 13:39:38;;;;;;;;;1.00;1.00;;;;;14.20;31.66;96371.69;6161889;28;97547;-61
2020/12/28 13:42:39;;;;;;;;;2.00;2.00;;;;;14.50;32.02;96389.19;6163625;28;97411;-64
2020/12/28 13:45:41;;;;;;;;;1.40;1.40;;;;;14.47;32.21;96381.66;6165209;28;97111;-63
2020/12/28 13:48:43;;;;;;;;;2.00;2.00;;;;;14.15;32.24;96374.53;6138335;28;96676;-61
2020/12/28 13:51:44;;;;;;;;;2.60;2.60;;;;;14.38;32.07;96381.59;6164316;28;99342;-61
2020/12/28 13:54:45;;;;;;;;;2.00;2.00;;;;;14.31;32.27;96390.16;6164061;28;97523;-61
2020/12/28 13:57:47;;;;;;;;;2.00;2.00;;;;;13.99;32.47;96375.97;6163703;28;98184;-61
2020/12/28 14:00:49;;;;;;;;;2.00;2.00;;;;;14.00;32.62;96394.63;6161625;28;98449;-61
2020/12/28 14:03:50;;;;;;;;;2.00;2.00;;;;;13.92;32.67;96408.91;6163966;28;96741;-61
2020/12/28 14:06:52;;;;;;;;;1.75;1.75;;;;;13.88;32.77;96395.13;6129707;28;98080;-61
2020/12/28 14:09:54;;;;;;;;;2.60;2.60;;;;;13.74;33.13;96407.88;6163970;28;97882;-61
2020/12/28 14:12:55;;;;;;;;;2.00;2.00;;;;;13.71;32.92;96430.16;6163695;28;97957;-61
2020/12/28 14:15:57;;;;;;;;;3.40;3.40;;;;;13.76;32.97;96389.44;6163537;28;97557;-62
2020/12/28 14:18:58;;;;;;;;;2.00;2.00;;;;;13.76;32.81;96381.31;6151923;28;96621;-61
2020/12/28 14:22:00;;;;;;;;;3.60;3.00;;;;;13.93;32.93;96402.34;6163544;28;97095;-62
2020/12/28 14:25:01;;;;;;;;;2.00;2.00;;;;;13.87;32.91;96407.09;6163427;28;98704;-60
2020/12/28 14:28:02;;;;;;;;;1.00;1.00;;;;;14.03;32.45;96404.84;6163548;28;98626;-61
2020/12/28 14:31:08;;;;;;;;;2.25;2.25;;;;;13.78;32.54;96379.09;6163296;28;97630;-61